Time;durP1;ratioP1;P1;durP2;ratioP2;P2;SDS_P1;SDS_P2;PMS_P1;PMS_P2;Temp;Humidity;BMP_temperature;BMP_pressure;BME280_temperature;BME280_humidity;BME280_pressure;Samples;Min_cycle;Max_cycle;Signal;HPM_P1;HPM_P2
2024/02/24 00:00:31;;;;;;;8.85;3.10;;;3.00;99.90;;;;;;5109691;28;20086;-74
2024/02/24 00:02:58;;;;;;;4.43;1.85;;;3.00;99.90;;;;;;5107577;28;20059;-75
2024/02/24 00:05:27;;;;;;;6.60;2.17;;;3.00;99.90;;;;;;5101691;28;20759;-73
2024/02/24 00:07:54;;;;;;;9.23;2.20;;;3.10;99.90;;;;;;5100637;28;20055;-73
2024/02/24 00:10:21;;;;;;;3.65;1.75;;;3.00;99.90;;;;;;5107934;28;20044;-75
2024/02/24 00:12:49;;;;;;;4.15;1.90;;;3.00;99.90;;;;;;5102337;28;20080;-74
2024/02/24 00:15:15;;;;;;;3.83;1.65;;;3.00;99.90;;;;;;5111102;28;20051;-72
2024/02/24 00:17:42;;;;;;;9.23;1.92;;;3.00;99.90;;;;;;5104886;28;20044;-74
2024/02/24 00:20:11;;;;;;;5.90;1.83;;;2.90;99.90;;;;;;5110898;28;20111;-75
2024/02/24 00:22:38;;;;;;;3.38;2.58;;;3.00;99.90;;;;;;5107624;28;20632;-75
2024/02/24 00:25:06;;;;;;;3.42;1.70;;;2.90;99.90;;;;;;5114006;28;20511;-74
2024/02/24 00:27:32;;;;;;;13.02;2.83;;;2.90;99.90;;;;;;5108414;28;20383;-74
2024/02/24 00:29:59;;;;;;;3.83;2.05;;;2.90;99.90;;;;;;5106936;28;20066;-74
2024/02/24 00:32:26;;;;;;;4.78;1.98;;;2.90;99.90;;;;;;5112765;28;20096;-74
2024/02/24 00:34:53;;;;;;;3.90;2.35;;;2.90;99.90;;;;;;5111673;28;20054;-73
2024/02/24 00:37:20;;;;;;;5.38;2.40;;;2.90;99.90;;;;;;5101855;28;20044;-72
2024/02/24 00:39:46;;;;;;;7.97;2.40;;;2.80;99.90;;;;;;5114484;28;20116;-73
2024/02/24 00:42:13;;;;;;;3.20;1.63;;;2.70;99.90;;;;;;5091742;28;20052;-75
2024/02/24 00:44:40;;;;;;;4.50;2.17;;;2.60;99.90;;;;;;5114065;28;20048;-74
2024/02/24 00:47:07;;;;;;;5.80;1.88;;;2.70;99.90;;;;;;5115170;28;20113;-72
2024/02/24 00:49:34;;;;;;;5.50;1.42;;;2.50;99.90;;;;;;5112113;28;20074;-73
2024/02/24 00:52:00;;;;;;;7.45;2.00;;;2.50;99.90;;;;;;5112585;28;20427;-74
2024/02/24 00:54:27;;;;;;;4.13;1.95;;;2.50;99.90;;;;;;5113181;28;20488;-73
2024/02/24 00:56:54;;;;;;;4.15;2.17;;;2.60;99.90;;;;;;5107157;28;20036;-72
2024/02/24 00:59:23;;;;;;;2.53;2.05;;;2.50;99.90;;;;;;5110723;28;20062;-75
2024/02/24 01:01:50;;;;;;;5.28;1.73;;;2.50;99.90;;;;;;5103158;28;20650;-74
2024/02/24 01:04:17;;;;;;;4.15;1.85;;;2.50;99.90;;;;;;5101234;28;20051;-73
2024/02/24 01:06:46;;;;;;;4.63;2.20;;;2.50;99.90;;;;;;5112662;28;20062;-74
2024/02/24 01:09:13;;;;;;;4.85;2.00;;;2.50;99.90;;;;;;5113741;28;20047;-75
2024/02/24 01:11:40;;;;;;;2.80;1.58;;;2.50;99.90;;;;;;5114811;28;20139;-74
2024/02/24 01:14:07;;;;;;;8.63;2.53;;;2.40;99.90;;;;;;5103225;28;20102;-73
2024/02/24 01:16:37;;;;;;;5.75;1.75;;;2.40;99.90;;;;;;5113464;28;20043;-73
2024/02/24 01:19:04;;;;;;;3.42;1.58;;;2.40;99.90;;;;;;5091397;28;20443;-73
2024/02/24 01:21:31;;;;;;;3.38;1.92;;;2.40;99.90;;;;;;5110646;28;20539;-74
2024/02/24 01:23:57;;;;;;;5.88;2.05;;;2.40;99.90;;;;;;5087958;28;20101;-74
2024/02/24 01:26:24;;;;;;;3.55;1.70;;;2.40;99.90;;;;;;5086927;28;20050;-74
2024/02/24 01:28:51;;;;;;;4.75;1.73;;;2.40;99.90;;;;;;5103268;28;20044;-74
2024/02/24 01:31:18;;;;;;;7.30;1.83;;;2.40;99.90;;;;;;5089096;28;20051;-74
2024/02/24 01:33:45;;;;;;;8.98;1.60;;;2.50;99.90;;;;;;5093829;28;20108;-74
2024/02/24 01:36:12;;;;;;;4.72;1.70;;;2.50;99.90;;;;;;5109531;28;20109;-72
2024/02/24 01:38:39;;;;;;;5.50;1.80;;;2.50;99.90;;;;;;5112867;28;20044;-75
2024/02/24 01:41:06;;;;;;;5.97;1.15;;;2.50;99.90;;;;;;5091825;28;20043;-73
2024/02/24 01:43:36;;;;;;;9.30;2.17;;;2.50;99.90;;;;;;5073534;28;20114;-75
2024/02/24 01:46:05;;;;;;;11.95;2.58;;;2.50;99.90;;;;;;5107098;28;20044;-73
2024/02/24 01:48:32;;;;;;;5.53;2.45;;;2.50;99.90;;;;;;5107135;28;20043;-73
2024/02/24 01:50:59;;;;;;;9.00;4.07;;;2.40;99.90;;;;;;5110791;28;20052;-74
2024/02/24 01:53:29;;;;;;;3.42;1.60;;;2.30;99.90;;;;;;5092730;28;20103;-72
2024/02/24 01:55:56;;;;;;;5.63;2.30;;;2.20;99.90;;;;;;5081320;28;20275;-73
2024/02/24 01:58:23;;;;;;;4.25;1.73;;;2.20;99.90;;;;;;5073609;28;20071;-73
2024/02/24 02:00:50;;;;;;;4.95;1.88;;;2.20;99.90;;;;;;5091407;28;20506;-73
2024/02/24 02:03:16;;;;;;;4.85;1.60;;;2.20;99.90;;;;;;5105372;28;20035;-73
2024/02/24 02:05:43;;;;;;;9.35;2.58;;;2.10;99.90;;;;;;5097105;28;20163;-73
2024/02/24 02:08:10;;;;;;;2.40;1.48;;;2.10;99.90;;;;;;5110625;28;20044;-73
2024/02/24 02:10:44;;;;;;;6.82;1.90;;;2.10;99.90;;;;;;5110796;28;20290;-74
2024/02/24 02:13:11;;;;;;;4.45;2.03;;;2.10;99.90;;;;;;5109139;28;20400;-73
2024/02/24 02:15:38;;;;;;;3.05;1.63;;;2.10;99.90;;;;;;5102940;28;20439;-72
2024/02/24 02:18:05;;;;;;;5.85;2.40;;;2.10;99.90;;;;;;5101967;28;20044;-72
2024/02/24 02:20:33;;;;;;;4.13;1.45;;;2.00;99.90;;;;;;5089315;28;20326;-73
2024/02/24 02:23:00;;;;;;;4.38;2.13;;;2.00;99.90;;;;;;5110367;28;20138;-74
2024/02/24 02:25:26;;;;;;;7.20;1.92;;;2.10;99.90;;;;;;5090701;28;20714;-73
2024/02/24 02:27:53;;;;;;;3.75;1.83;;;2.00;99.90;;;;;;5102573;28;20089;-74
2024/02/24 02:30:20;;;;;;;12.10;2.03;;;2.10;99.90;;;;;;5100490;28;20039;-72
2024/02/24 02:32:47;;;;;;;4.20;2.10;;;2.00;99.90;;;;;;5107531;28;20299;-73
2024/02/24 02:35:14;;;;;;;4.10;1.77;;;2.00;99.90;;;;;;5104778;28;20047;-74
2024/02/24 02:37:41;;;;;;;4.68;1.80;;;2.00;99.90;;;;;;5108497;28;20062;-73
2024/02/24 02:40:08;;;;;;;2.05;1.60;;;2.00;99.90;;;;;;5102347;28;20483;-73
2024/02/24 02:42:35;;;;;;;2.90;1.80;;;1.90;99.90;;;;;;5087924;28;20104;-74
2024/02/24 02:45:03;;;;;;;3.40;1.90;;;2.00;99.90;;;;;;5108342;28;20052;-73
2024/02/24 02:47:30;;;;;;;5.20;2.47;;;1.80;99.90;;;;;;5101685;28;20645;-74
2024/02/24 02:49:57;;;;;;;9.20;2.15;;;1.80;99.90;;;;;;5105194;28;20057;-74
2024/02/24 02:52:24;;;;;;;5.93;2.15;;;1.80;99.90;;;;;;5106411;28;20084;-73
2024/02/24 02:54:50;;;;;;;4.05;1.80;;;1.80;99.90;;;;;;5107718;28;20051;-73
2024/02/24 02:57:17;;;;;;;2.70;1.42;;;1.80;99.90;;;;;;5100502;28;20056;-73
2024/02/24 02:59:44;;;;;;;8.13;2.30;;;1.80;99.90;;;;;;5108113;28;20058;-73
2024/02/24 03:02:11;;;;;;;8.57;1.95;;;1.80;99.90;;;;;;5097205;28;20047;-73
2024/02/24 03:04:38;;;;;;;3.08;1.70;;;1.90;99.90;;;;;;5101062;28;20508;-74
2024/02/24 03:07:05;;;;;;;5.47;2.13;;;1.80;99.90;;;;;;5102061;28;20074;-73
2024/02/24 03:09:32;;;;;;;5.75;1.63;;;1.70;99.90;;;;;;5090172;28;20058;-73
2024/02/24 03:11:59;;;;;;;5.20;2.30;;;1.70;99.90;;;;;;5109658;28;20051;-72
2024/02/24 03:14:26;;;;;;;4.90;1.63;;;1.70;99.90;;;;;;5104695;28;20054;-72
2024/02/24 03:16:54;;;;;;;3.88;2.00;;;1.70;99.90;;;;;;5098272;28;20131;-72
2024/02/24 03:19:20;;;;;;;3.03;1.70;;;1.70;99.90;;;;;;5084181;28;20040;-73
2024/02/24 03:21:47;;;;;;;4.25;1.60;;;1.60;99.90;;;;;;5102676;28;20044;-73
2024/02/24 03:24:14;;;;;;;6.30;1.48;;;1.60;99.90;;;;;;5099629;28;20091;-72
2024/02/24 03:26:41;;;;;;;6.47;2.00;;;1.60;99.90;;;;;;5107334;28;20073;-72
2024/02/24 03:29:08;;;;;;;5.68;2.28;;;1.70;99.90;;;;;;5101913;28;20134;-73
2024/02/24 03:31:35;;;;;;;4.53;1.83;;;1.60;99.90;;;;;;5083332;28;20047;-74
2024/02/24 03:34:02;;;;;;;3.33;2.03;;;1.60;99.90;;;;;;5104367;28;20480;-74
2024/02/24 03:36:29;;;;;;;5.00;2.08;;;1.60;99.90;;;;;;5104034;28;20058;-73
2024/02/24 03:38:56;;;;;;;4.88;1.75;;;1.60;99.90;;;;;;5105700;28;20100;-73
2024/02/24 03:41:22;;;;;;;6.15;2.50;;;1.50;99.90;;;;;;5106988;28;20112;-72
2024/02/24 03:43:49;;;;;;;4.45;1.63;;;1.50;99.90;;;;;;5107865;28;20055;-73
2024/02/24 03:46:16;;;;;;;3.90;1.77;;;1.50;99.90;;;;;;5107117;28;20404;-72
2024/02/24 03:48:45;;;;;;;4.30;1.83;;;1.50;99.90;;;;;;5105276;28;20117;-73
2024/02/24 03:51:13;;;;;;;8.65;1.95;;;1.50;99.90;;;;;;5102366;28;20044;-73
2024/02/24 03:53:40;;;;;;;3.35;2.05;;;1.50;99.90;;;;;;5088718;28;20109;-72
2024/02/24 03:56:07;;;;;;;6.00;3.55;;;1.40;99.90;;;;;;5105994;28;20083;-73
2024/02/24 03:58:34;;;;;;;6.93;2.45;;;1.40;99.90;;;;;;5098490;28;20595;-72
2024/02/24 04:01:01;;;;;;;4.25;2.10;;;1.40;99.90;;;;;;5102111;28;20112;-72
2024/02/24 04:03:28;;;;;;;4.07;2.78;;;1.40;99.90;;;;;;5099306;28;20042;-73
2024/02/24 04:05:54;;;;;;;5.10;1.95;;;1.30;99.90;;;;;;5094232;28;20134;-73
2024/02/24 04:08:21;;;;;;;7.70;2.30;;;1.30;99.90;;;;;;5104811;28;20044;-73
2024/02/24 04:10:48;;;;;;;4.30;1.95;;;1.40;99.90;;;;;;5084886;28;20262;-72
2024/02/24 04:13:15;;;;;;;6.07;2.50;;;1.30;99.90;;;;;;5102631;28;20039;-72
2024/02/24 04:15:46;;;;;;;5.32;2.30;;;1.30;99.90;;;;;;5107843;28;20051;-72
2024/02/24 04:18:14;;;;;;;4.57;2.20;;;1.40;99.90;;;;;;5097637;28;20130;-73
2024/02/24 04:20:43;;;;;;;5.03;2.03;;;1.30;99.90;;;;;;5102388;28;20071;-72
2024/02/24 04:23:09;;;;;;;8.93;3.03;;;1.30;99.90;;;;;;5100872;28;20048;-72
2024/02/24 04:25:36;;;;;;;5.07;1.67;;;1.30;99.90;;;;;;5088146;28;20050;-73
2024/02/24 04:28:03;;;;;;;3.85;2.13;;;1.30;99.90;;;;;;5102669;28;20051;-72
2024/02/24 04:30:30;;;;;;;6.68;1.42;;;1.20;99.90;;;;;;5109639;28;20059;-72
2024/02/24 04:32:57;;;;;;;5.18;2.00;;;1.20;99.90;;;;;;5109634;28;20052;-72
2024/02/24 04:35:24;;;;;;;4.50;1.80;;;1.10;99.90;;;;;;5087533;28;20420;-73
2024/02/24 04:37:51;;;;;;;5.93;2.50;;;1.10;99.90;;;;;;5099370;28;20092;-72
2024/02/24 04:40:19;;;;;;;2.08;1.45;;;1.10;99.90;;;;;;5083629;28;20039;-73
2024/02/24 04:42:47;;;;;;;5.78;1.77;;;1.10;99.90;;;;;;5103758;28;20052;-73
2024/02/24 04:45:14;;;;;;;2.55;1.60;;;1.10;99.90;;;;;;5105055;28;20048;-72
2024/02/24 04:47:40;;;;;;;6.07;2.15;;;1.10;99.90;;;;;;5104339;28;20425;-72
2024/02/24 04:50:08;;;;;;;5.20;2.47;;;1.10;99.90;;;;;;5104889;28;20120;-72
2024/02/24 04:52:35;;;;;;;3.78;1.80;;;1.10;99.90;;;;;;5105311;28;20086;-73
2024/02/24 04:55:03;;;;;;;4.88;2.00;;;1.10;99.90;;;;;;5106603;28;20578;-72
2024/02/24 04:57:30;;;;;;;4.75;2.10;;;1.10;99.90;;;;;;5105549;28;20063;-72
2024/02/24 04:59:57;;;;;;;4.88;1.92;;;1.20;99.90;;;;;;5099860;28;20052;-74
2024/02/24 05:02:23;;;;;;;8.45;2.47;;;1.10;99.90;;;;;;5103039;28;20100;-73
2024/02/24 05:04:52;;;;;;;3.83;1.50;;;1.10;99.90;;;;;;5105738;28;20055;-72
2024/02/24 05:07:19;;;;;;;8.85;1.95;;;1.40;99.90;;;;;;5097980;28;20567;-73
2024/02/24 05:09:46;;;;;;;5.38;1.65;;;1.10;99.90;;;;;;5105462;28;20048;-72
2024/02/24 05:12:13;;;;;;;6.00;1.65;;;1.10;99.90;;;;;;5074419;28;20043;-72
2024/02/24 05:14:40;;;;;;;3.67;1.42;;;1.10;99.90;;;;;;5101185;28;20276;-73
2024/02/24 05:17:07;;;;;;;4.07;2.10;;;1.10;99.90;;;;;;5105220;28;20075;-71
2024/02/24 05:19:35;;;;;;;3.58;2.03;;;1.10;99.90;;;;;;5106358;28;20080;-73
2024/02/24 05:22:02;;;;;;;2.63;1.60;;;1.10;99.90;;;;;;5090062;28;20040;-74
2024/02/24 05:24:29;;;;;;;4.95;1.27;;;1.10;99.90;;;;;;5096724;28;20054;-74
2024/02/24 05:26:55;;;;;;;6.78;1.88;;;1.20;99.90;;;;;;5100049;28;20040;-73
2024/02/24 05:29:22;;;;;;;4.75;1.70;;;1.20;99.90;;;;;;5106488;28;20385;-73
2024/02/24 05:31:49;;;;;;;5.18;1.77;;;1.10;99.90;;;;;;5104456;28;20496;-74
2024/02/24 05:34:16;;;;;;;2.95;1.25;;;1.10;99.90;;;;;;5104573;28;20110;-73
2024/02/24 05:36:43;;;;;;;3.80;1.60;;;1.30;99.90;;;;;;5095599;28;20097;-74
2024/02/24 05:39:10;;;;;;;7.88;2.15;;;1.20;99.90;;;;;;5104614;28;20570;-73
2024/02/24 05:41:36;;;;;;;5.03;1.77;;;1.10;99.90;;;;;;5086920;28;20075;-73
2024/02/24 05:44:03;;;;;;;3.55;1.75;;;1.10;99.90;;;;;;5103845;28;20587;-73
2024/02/24 05:46:30;;;;;;;4.38;1.85;;;1.00;99.90;;;;;;5103697;28;20048;-73
2024/02/24 05:48:57;;;;;;;5.43;2.05;;;1.00;99.90;;;;;;5093455;28;20055;-73
2024/02/24 05:51:24;;;;;;;6.22;2.20;;;1.10;99.90;;;;;;5105611;28;20059;-73
2024/02/24 05:53:51;;;;;;;8.32;2.30;;;1.10;99.90;;;;;;5104626;28;20039;-72
2024/02/24 05:56:18;;;;;;;7.07;1.50;;;1.10;99.90;;;;;;5106288;28;20054;-73
2024/02/24 05:58:45;;;;;;;7.68;1.73;;;1.10;99.90;;;;;;5079043;28;20104;-73
2024/02/24 06:01:14;;;;;;;6.25;1.83;;;1.10;99.90;;;;;;5109697;28;20059;-73
2024/02/24 06:03:41;;;;;;;3.63;2.13;;;1.10;99.90;;;;;;5109007;28;20128;-73
2024/02/24 06:06:08;;;;;;;3.83;1.98;;;1.00;99.90;;;;;;5107823;28;20078;-73
2024/02/24 06:08:35;;;;;;;6.15;2.50;;;1.10;99.90;;;;;;5107159;28;20071;-73
2024/02/24 06:11:02;;;;;;;6.20;3.20;;;0.90;99.90;;;;;;5108837;28;20138;-75
2024/02/24 06:13:29;;;;;;;9.45;3.03;;;0.90;99.90;;;;;;5095391;28;20401;-73
2024/02/24 06:15:56;;;;;;;7.50;2.75;;;0.90;99.90;;;;;;5106040;28;20043;-73
2024/02/24 06:18:23;;;;;;;4.63;2.40;;;0.90;99.90;;;;;;5107081;28;20047;-73
2024/02/24 06:20:52;;;;;;;9.27;1.92;;;0.90;99.90;;;;;;5088566;28;20059;-73
2024/02/24 06:23:19;;;;;;;3.03;1.50;;;0.90;99.90;;;;;;5107749;28;20475;-73
2024/02/24 06:25:46;;;;;;;4.90;1.90;;;0.90;99.90;;;;;;5108080;28;20069;-73
2024/02/24 06:28:14;;;;;;;5.00;1.98;;;0.90;99.90;;;;;;5090062;28;20039;-73
2024/02/24 06:30:41;;;;;;;5.93;1.55;;;1.00;99.90;;;;;;5106997;28;20056;-73
2024/02/24 06:33:08;;;;;;;4.20;1.35;;;1.30;99.90;;;;;;5097508;28;20404;-74
2024/02/24 06:35:35;;;;;;;1.95;1.38;;;1.00;99.90;;;;;;5101306;28;20098;-74
2024/02/24 06:38:02;;;;;;;5.00;1.80;;;1.00;99.90;;;;;;5099518;28;20043;-73
2024/02/24 06:40:29;;;;;;;4.07;2.20;;;1.00;99.90;;;;;;5104897;28;20400;-74
2024/02/24 06:43:10;;;;;;;3.28;1.80;;;1.00;99.90;;;;;;5090695;28;20460;-73
2024/02/24 06:45:37;;;;;;;6.00;2.20;;;1.00;99.90;;;;;;5107728;28;20073;-72
2024/02/24 06:48:04;;;;;;;5.20;2.10;;;0.90;99.90;;;;;;5106910;28;20288;-72
2024/02/24 06:50:31;;;;;;;3.78;2.00;;;0.90;99.90;;;;;;5088455;28;20071;-74
2024/02/24 06:52:58;;;;;;;12.02;3.13;;;0.90;99.90;;;;;;5108079;28;20131;-74
2024/02/24 06:55:25;;;;;;;3.05;1.63;;;0.90;99.90;;;;;;5107876;28;20500;-74
2024/02/24 06:57:52;;;;;;;9.82;2.78;;;0.90;99.90;;;;;;5101618;28;20463;-74
2024/02/24 07:00:19;;;;;;;9.65;2.75;;;0.90;99.90;;;;;;5089002;28;20054;-74
2024/02/24 07:02:46;;;;;;;10.07;2.53;;;0.90;99.90;;;;;;5099293;28;20043;-74
2024/02/24 07:05:13;;;;;;;4.53;2.13;;;0.90;99.90;;;;;;5093184;28;20511;-72
2024/02/24 07:07:41;;;;;;;6.03;3.60;;;0.90;99.90;;;;;;5101789;28;20087;-74
2024/02/24 07:10:08;;;;;;;11.77;3.13;;;0.90;99.90;;;;;;5105313;28;20043;-72
2024/02/24 07:12:36;;;;;;;4.07;2.03;;;0.90;99.90;;;;;;4741778;28;9999932;-74
2024/02/24 07:15:07;;;;;;;4.18;2.30;;;0.90;99.90;;;;;;5103886;28;20048;-74
2024/02/24 07:17:34;;;;;;;4.80;2.50;;;0.90;99.90;;;;;;5092279;28;20561;-74
2024/02/24 07:20:01;;;;;;;7.78;3.15;;;0.90;99.90;;;;;;5103397;28;20051;-72
2024/02/24 07:22:28;;;;;;;9.50;3.30;;;0.90;99.90;;;;;;5104942;28;20039;-72
2024/02/24 07:24:55;;;;;;;10.05;2.17;;;0.90;99.90;;;;;;5101169;28;20497;-73
2024/02/24 07:27:22;;;;;;;5.30;2.88;;;1.10;99.90;;;;;;5103047;28;20047;-74
2024/02/24 07:29:49;;;;;;;9.38;3.20;;;1.00;99.90;;;;;;5093686;28;20386;-74
2024/02/24 07:32:16;;;;;;;4.18;2.50;;;1.00;99.90;;;;;;5100125;28;20468;-74
2024/02/24 07:34:42;;;;;;;4.47;2.40;;;1.00;99.90;;;;;;5099935;28;20050;-73
2024/02/24 07:37:11;;;;;;;9.50;3.50;;;1.00;99.90;;;;;;5104030;28;20047;-71
2024/02/24 07:39:38;;;;;;;10.77;2.75;;;1.00;99.90;;;;;;5103799;28;20040;-73
2024/02/24 07:42:05;;;;;;;7.53;3.50;;;1.00;99.90;;;;;;5087983;28;20051;-72
2024/02/24 07:44:32;;;;;;;6.90;2.95;;;1.10;99.90;;;;;;5105071;28;20048;-74
2024/02/24 07:46:59;;;;;;;8.30;3.78;;;1.10;99.90;;;;;;5104654;28;20047;-73
2024/02/24 07:49:25;;;;;;;5.07;2.78;;;1.10;99.90;;;;;;5102032;28;20488;-73
2024/02/24 07:51:53;;;;;;;7.05;3.53;;;1.20;99.90;;;;;;5105404;28;20489;-74
2024/02/24 07:54:19;;;;;;;6.32;2.60;;;1.20;99.90;;;;;;5104044;28;20052;-73
2024/02/24 07:56:46;;;;;;;5.78;3.58;;;1.20;99.90;;;;;;5104912;28;20108;-73
2024/02/24 07:59:13;;;;;;;7.45;3.58;;;1.30;99.90;;;;;;5092442;28;20047;-73
2024/02/24 08:01:40;;;;;;;6.75;2.92;;;1.40;99.90;;;;;;5104950;28;20044;-74
2024/02/24 08:04:07;;;;;;;11.70;3.75;;;1.40;99.90;;;;;;5100249;28;20048;-74
2024/02/24 08:06:34;;;;;;;16.52;4.53;;;1.50;99.90;;;;;;5102389;28;20046;-73
2024/02/24 08:09:01;;;;;;;7.10;3.65;;;1.50;99.90;;;;;;5101945;28;20043;-72
2024/02/24 08:11:29;;;;;;;7.97;3.95;;;1.60;99.90;;;;;;5097120;28;20047;-72
2024/02/24 08:13:57;;;;;;;7.32;3.55;;;1.70;99.90;;;;;;5102113;28;20043;-73
2024/02/24 08:16:23;;;;;;;8.13;3.33;;;1.70;99.90;;;;;;5103390;28;20104;-73
2024/02/24 08:18:50;;;;;;;7.60;3.67;;;1.80;99.90;;;;;;5097371;28;20329;-72
2024/02/24 08:21:17;;;;;;;5.90;3.22;;;2.00;99.90;;;;;;5103511;28;20055;-71
2024/02/24 08:23:44;;;;;;;10.80;4.05;;;1.90;99.90;;;;;;5099126;28;20051;-73
2024/02/24 08:26:11;;;;;;;8.25;2.72;;;2.00;99.90;;;;;;5079435;28;20222;-71
2024/02/24 08:28:38;;;;;;;4.85;2.65;;;2.10;99.90;;;;;;5102771;28;20070;-72
2024/02/24 08:31:05;;;;;;;6.97;2.55;;;2.20;99.90;;;;;;5100048;28;20047;-72
2024/02/24 08:33:32;;;;;;;6.88;1.85;;;2.20;99.90;;;;;;5101664;28;20040;-72
2024/02/24 08:35:59;;;;;;;8.38;2.97;;;2.30;99.90;;;;;;5079090;28;20052;-71
2024/02/24 08:38:29;;;;;;;9.18;3.13;;;2.40;99.90;;;;;;5077282;28;20622;-72
2024/02/24 08:40:55;;;;;;;16.13;4.28;;;2.50;99.90;;;;;;5102668;28;20059;-73
2024/02/24 08:43:22;;;;;;;6.45;2.15;;;2.60;99.90;;;;;;5100873;28;20047;-72
2024/02/24 08:45:49;;;;;;;5.07;2.30;;;2.70;99.90;;;;;;5099548;28;21577;-71
2024/02/24 08:48:16;;;;;;;9.45;2.75;;;2.70;99.90;;;;;;5101945;28;20051;-72
2024/02/24 08:50:43;;;;;;;6.57;2.75;;;2.80;99.90;;;;;;5100243;28;20504;-72
2024/02/24 08:53:10;;;;;;;8.80;2.70;;;2.90;99.90;;;;;;5097457;28;20055;-72
2024/02/24 08:55:37;;;;;;;8.20;2.38;;;3.10;99.90;;;;;;5098553;28;20061;-72
2024/02/24 08:58:04;;;;;;;13.68;3.83;;;3.30;99.90;;;;;;5103282;28;20058;-71
2024/02/24 09:00:31;;;;;;;5.50;2.05;;;3.70;99.90;;;;;;5098622;28;20085;-71
2024/02/24 09:02:58;;;;;;;15.43;3.90;;;3.70;99.90;;;;;;5097749;28;20073;-70
2024/02/24 09:05:25;;;;;;;4.85;1.98;;;3.80;99.90;;;;;;5099714;28;20120;-71
2024/02/24 09:07:52;;;;;;;9.55;2.03;;;4.00;99.90;;;;;;5096440;28;20075;-70
2024/02/24 09:10:19;;;;;;;6.50;2.05;;;4.30;99.90;;;;;;5098869;28;20047;-71
2024/02/24 09:12:45;;;;;;;5.20;1.30;;;4.50;99.90;;;;;;5098309;28;20055;-70
2024/02/24 09:15:12;;;;;;;6.80;2.17;;;4.90;99.90;;;;;;5081135;28;20039;-70
2024/02/24 09:17:39;;;;;;;6.93;1.90;;;5.30;99.90;;;;;;5090972;28;20105;-70
2024/02/24 09:20:08;;;;;;;6.05;1.85;;;5.70;99.90;;;;;;5075518;28;20117;-70
2024/02/24 09:22:35;;;;;;;5.32;1.55;;;6.00;99.90;;;;;;5080144;28;20144;-70
2024/02/24 09:25:03;;;;;;;8.60;1.77;;;6.30;99.90;;;;;;5087784;28;20092;-72
2024/02/24 09:27:31;;;;;;;4.18;1.75;;;6.70;99.90;;;;;;5089553;28;20043;-72
2024/02/24 09:29:58;;;;;;;9.50;1.80;;;7.10;99.90;;;;;;5085336;28;20135;-71
2024/02/24 09:32:25;;;;;;;3.80;1.55;;;7.20;99.90;;;;;;5103698;28;20105;-72
2024/02/24 09:34:52;;;;;;;4.13;1.38;;;7.20;99.90;;;;;;5107240;28;20055;-72
2024/02/24 09:37:19;;;;;;;6.13;1.75;;;7.10;99.90;;;;;;5105345;28;20058;-70
2024/02/24 09:39:45;;;;;;;6.63;1.60;;;6.90;99.90;;;;;;5107123;28;20549;-70
2024/02/24 09:42:12;;;;;;;13.98;3.50;;;6.80;99.90;;;;;;5103832;28;20043;-71
2024/02/24 09:44:40;;;;;;;5.13;1.13;;;6.70;99.90;;;;;;5105463;28;20065;-70
2024/02/24 09:47:07;;;;;;;5.78;1.67;;;6.70;99.90;;;;;;5095349;28;20096;-71
2024/02/24 09:49:34;;;;;;;7.85;1.55;;;6.70;99.90;;;;;;5098331;28;20051;-71
2024/02/24 09:52:01;;;;;;;11.80;1.85;;;6.60;99.90;;;;;;5097649;28;20164;-71
2024/02/24 09:54:29;;;;;;;6.13;1.50;;;6.70;99.90;;;;;;5104775;28;20044;-72
2024/02/24 09:56:56;;;;;;;5.53;1.80;;;6.60;99.90;;;;;;5080729;28;20052;-70
2024/02/24 09:59:24;;;;;;;10.98;1.40;;;6.60;99.90;;;;;;5101824;28;20363;-72
2024/02/24 10:01:52;;;;;;;6.05;1.40;;;6.60;99.90;;;;;;5085349;28;20566;-70
2024/02/24 10:04:19;;;;;;;3.47;1.55;;;6.60;99.90;;;;;;5085700;28;20237;-71
2024/02/24 10:06:46;;;;;;;6.15;1.85;;;6.70;99.90;;;;;;5092105;28;20052;-71
2024/02/24 10:09:13;;;;;;;6.95;1.40;;;6.70;99.90;;;;;;5084023;28;20043;-72
2024/02/24 10:11:40;;;;;;;10.73;1.45;;;6.80;99.90;;;;;;5095188;28;20047;-72
2024/02/24 10:14:08;;;;;;;8.00;1.33;;;6.70;99.90;;;;;;5097702;28;20052;-73
2024/02/24 10:16:38;;;;;;;6.25;1.25;;;6.80;99.90;;;;;;5080970;28;20443;-71
2024/02/24 10:19:06;;;;;;;6.28;1.08;;;6.60;99.90;;;;;;5079341;28;20052;-71
2024/02/24 10:21:33;;;;;;;1.95;0.60;;;6.70;99.90;;;;;;5098380;28;20040;-72
2024/02/24 10:24:00;;;;;;;8.05;3.85;;;6.70;99.90;;;;;;5068625;28;20411;-72
2024/02/24 10:26:28;;;;;;;9.20;1.38;;;6.80;99.90;;;;;;5088517;28;20661;-72
2024/02/24 10:28:55;;;;;;;6.15;1.77;;;6.70;99.90;;;;;;5058005;28;20064;-73
2024/02/24 10:31:23;;;;;;;5.47;1.13;;;6.70;99.90;;;;;;5102962;28;20138;-71
2024/02/24 10:33:50;;;;;;;5.95;1.20;;;6.70;99.90;;;;;;5102445;28;20672;-72
2024/02/24 10:36:18;;;;;;;6.30;1.00;;;6.70;99.90;;;;;;5101106;28;20039;-71
2024/02/24 10:38:49;;;;;;;7.30;1.00;;;6.70;99.90;;;;;;5062214;28;20880;-73
2024/02/24 10:41:22;;;;;;;5.40;1.25;;;6.70;99.90;;;;;;5066518;28;20812;-72
2024/02/24 10:43:53;;;;;;;4.15;0.90;;;6.70;99.90;;;;;;5095649;28;20117;-71
2024/02/24 10:46:36;;;;;;;16.85;2.00;;;6.70;99.90;;;;;;5096827;28;20055;-70
2024/02/24 10:49:04;;;;;;;5.47;1.17;;;6.80;99.90;;;;;;5080678;28;20512;-72
2024/02/24 10:51:34;;;;;;;9.52;1.23;;;6.80;99.90;;;;;;5078946;28;20047;-72
2024/02/24 10:54:11;;;;;;;10.52;1.20;;;6.80;99.90;;;;;;5099382;28;20055;-71
2024/02/24 10:56:39;;;;;;;5.47;1.10;;;6.90;99.90;;;;;;5084782;28;20040;-71
2024/02/24 10:59:10;;;;;;;8.27;1.95;;;7.00;99.90;;;;;;5075732;28;20943;-72
2024/02/24 11:01:46;;;;;;;8.20;1.85;;;7.00;99.90;;;;;;5099522;28;20063;-72
2024/02/24 11:04:13;;;;;;;7.90;1.60;;;7.00;99.90;;;;;;5102707;28;20048;-73
2024/02/24 11:06:54;;;;;;;8.50;1.42;;;7.10;99.90;;;;;;5087091;28;20108;-72
2024/02/24 11:09:39;;;;;;;4.00;1.73;;;7.10;99.90;;;;;;5098885;28;20071;-72
2024/02/24 11:12:10;;;;;;;14.18;2.45;;;7.20;99.90;;;;;;5102581;28;20055;-71
2024/02/24 11:14:38;;;;;;;4.90;0.90;;;7.20;99.90;;;;;;5098430;28;20100;-71
2024/02/24 11:17:05;;;;;;;6.93;1.52;;;7.30;99.90;;;;;;5088021;28;20047;-72
2024/02/24 11:19:47;;;;;;;8.38;0.98;;;7.30;99.90;;;;;;5107317;28;20479;-72
2024/02/24 11:22:24;;;;;;;10.02;1.13;;;7.40;99.90;;;;;;5090026;28;20086;-72
2024/02/24 11:25:04;;;;;;;6.97;0.88;;;7.40;99.90;;;;;;5070552;28;20043;-72
2024/02/24 11:27:36;;;;;;;6.35;1.75;;;7.50;99.90;;;;;;5103726;28;20415;-72
2024/02/24 11:30:35;;;;;;;7.40;1.25;;;7.60;99.90;;;;;;5105227;28;20047;-71
2024/02/24 11:33:23;;;;;;;9.52;1.25;;;7.70;99.90;;;;;;5095005;28;20054;-72
2024/02/24 11:35:51;;;;;;;5.85;1.08;;;7.90;99.90;;;;;;5096199;28;20564;-71
2024/02/24 11:38:19;;;;;;;4.72;1.60;;;7.90;99.90;;;;;;5079507;28;20098;-71
2024/02/24 11:40:47;;;;;;;9.25;1.38;;;7.90;99.90;;;;;;5106339;28;20044;-71
2024/02/24 11:43:15;;;;;;;12.25;1.40;;;8.00;99.90;;;;;;5105270;28;20075;-71
2024/02/24 11:45:49;;;;;;;4.78;1.30;;;8.00;99.90;;;;;;5083813;28;20234;-72
2024/02/24 11:48:17;;;;;;;6.05;1.65;;;8.00;99.90;;;;;;5102846;28;20054;-72
2024/02/24 11:50:44;;;;;;;6.32;1.30;;;8.00;99.90;;;;;;4729341;28;10000097;-71
2024/02/24 11:53:15;;;;;;;3.58;1.10;;;8.00;99.90;;;;;;5100422;28;20503;-71
2024/02/24 11:55:45;;;;;;;10.55;1.70;;;8.00;99.90;;;;;;5077175;28;20048;-70
2024/02/24 11:58:17;;;;;;;5.72;0.95;;;8.00;99.90;;;;;;5100720;28;20075;-71
2024/02/24 12:00:44;;;;;;;4.95;1.20;;;7.90;99.90;;;;;;5101533;28;20168;-70
2024/02/24 12:03:15;;;;;;;6.28;1.40;;;7.90;99.90;;;;;;5102544;28;20055;-71
2024/02/24 12:05:42;;;;;;;8.50;1.10;;;7.80;99.90;;;;;;5093376;28;20048;-71
2024/02/24 12:08:18;;;;;;;3.83;1.00;;;7.80;99.90;;;;;;5075728;28;20101;-71
2024/02/24 12:10:45;;;;;;;3.65;2.22;;;7.80;99.90;;;;;;5093798;28;20061;-71
2024/02/24 12:13:15;;;;;;;3.25;1.70;;;7.70;99.90;;;;;;5094815;28;20143;-71
2024/02/24 12:15:46;;;;;;;5.03;0.82;;;7.70;99.90;;;;;;5097654;28;20094;-71
2024/02/24 12:18:13;;;;;;;6.85;1.33;;;7.70;99.90;;;;;;5061918;28;20048;-71
2024/02/24 12:20:40;;;;;;;1.20;0.90;;;7.60;99.90;;;;;;5076951;28;20048;-71
2024/02/24 12:23:08;;;;;;;3.67;1.42;;;7.60;99.90;;;;;;5096527;28;20120;-69
2024/02/24 12:25:35;;;;;;;4.03;1.33;;;7.50;99.90;;;;;;5100207;28;20097;-70
2024/02/24 12:28:03;;;;;;;3.85;0.75;;;7.50;99.90;;;;;;5101897;28;20051;-70
2024/02/24 12:30:34;;;;;;;5.20;1.00;;;7.50;99.90;;;;;;5083762;28;20126;-70
2024/02/24 12:33:04;;;;;;;2.40;0.80;;;7.40;99.90;;;;;;5102861;28;20670;-71
2024/02/24 12:35:32;;;;;;;1.45;0.57;;;7.40;99.90;;;;;;5082686;28;20139;-71
2024/02/24 12:38:00;;;;;;;8.77;0.95;;;7.40;99.90;;;;;;5097413;28;20501;-71
2024/02/24 12:40:30;;;;;;;10.10;0.93;;;7.50;99.90;;;;;;5100712;28;20618;-71
2024/02/24 12:42:58;;;;;;;1.67;0.75;;;7.50;99.90;;;;;;5079254;28;20059;-71
2024/02/24 12:45:25;;;;;;;4.55;0.70;;;7.50;99.90;;;;;;5103556;28;20470;-70
2024/02/24 12:47:53;;;;;;;2.85;0.80;;;7.50;99.90;;;;;;5099198;28;20051;-70
2024/02/24 12:50:23;;;;;;;1.88;0.60;;;7.50;99.90;;;;;;5101559;28;20047;-70
2024/02/24 12:52:51;;;;;;;7.13;0.70;;;7.50;99.90;;;;;;5093014;28;20134;-70
2024/02/24 12:55:18;;;;;;;3.38;0.70;;;7.50;99.90;;;;;;5102674;28;20039;-71
2024/02/24 12:57:45;;;;;;;7.72;1.27;;;7.50;99.90;;;;;;5078993;28;20060;-71